Terminal Aerodrome Forecast
Issued by NWS Cleveland, OH

Home | Current Version | Previous Version | Graphics & Text | Print | Product List | Glossary On
Versions: 1 2 3 4 5 6 7 8 9 10 11 12 13 14 15 16 17 18 19 20 21 22 23 24 25 26
000
FTUS41 KCLE 250944 AAB
TAFCLE
TAF AMD
KCLE 250944Z 2510/2612 23006KT P6SM BKN035 BKN060
     FM251400 27010KT P6SM BKN035
     FM251700 27010G20KT P6SM BKN050
     FM252300 25006KT P6SM BKN060
     FM260200 25006KT P6SM VCSH BKN035 OVC060=

USA.gov is the U.S. government's official web portal to all federal, state and local government web resources and services.